Time;durP1;ratioP1;P1;durP2;ratioP2;P2;SDS_P1;SDS_P2;PMS_P1;PMS_P2;Temp;Humidity;BMP_temperature;BMP_pressure;BME280_temperature;BME280_humidity;BME280_pressure;Samples;Min_cycle;Max_cycle;Signal;HPM_P1;HPM_P2
2022/06/10 00:01:48;;;;;;;5.57;3.15;;;;;;;;;;5033335;28;20572;-67
2022/06/10 00:04:13;;;;;;;4.75;2.80;;;;;;;;;;5033323;28;20696;-67
2022/06/10 00:06:39;;;;;;;3.65;2.97;;;;;;;;;;5033129;28;20205;-66
2022/06/10 00:09:06;;;;;;;3.95;3.17;;;;;;;;;;5033160;28;20165;-66
2022/06/10 00:11:32;;;;;;;5.25;3.05;;;;;;;;;;5033299;28;20483;-66
2022/06/10 00:13:57;;;;;;;5.43;3.30;;;;;;;;;;5032994;28;20201;-67
2022/06/10 00:16:24;;;;;;;6.82;3.38;;;;;;;;;;5033461;28;20168;-67
2022/06/10 00:18:50;;;;;;;6.07;3.50;;;;;;;;;;5033171;28;20188;-67
2022/06/10 00:21:17;;;;;;;5.20;3.42;;;;;;;;;;5033448;28;20170;-67
2022/06/10 00:23:43;;;;;;;4.88;3.50;;;;;;;;;;5033035;28;20539;-67
2022/06/10 00:26:09;;;;;;;4.05;3.28;;;;;;;;;;5033145;28;20257;-67
2022/06/10 00:28:35;;;;;;;5.32;2.90;;;;;;;;;;5033025;28;20165;-67
2022/06/10 00:31:01;;;;;;;4.32;3.30;;;;;;;;;;5033130;28;20204;-67
2022/06/10 00:33:28;;;;;;;3.50;2.97;;;;;;;;;;5033211;28;20251;-67
2022/06/10 00:35:54;;;;;;;4.07;2.90;;;;;;;;;;5032941;28;20157;-67
2022/06/10 00:38:20;;;;;;;4.72;3.28;;;;;;;;;;5031939;28;20176;-67
2022/06/10 00:40:52;;;;;;;5.57;3.63;;;;;;;;;;5033264;28;20555;-66
2022/06/10 00:43:19;;;;;;;5.95;3.25;;;;;;;;;;5033093;28;20546;-66
2022/06/10 00:46:04;;;;;;;4.65;3.53;;;;;;;;;;5033021;28;20170;-66
2022/06/10 00:48:49;;;;;;;7.32;3.88;;;;;;;;;;5032764;28;20590;-66
2022/06/10 00:51:27;;;;;;;5.80;3.63;;;;;;;;;;5032832;28;20555;-66
2022/06/10 00:54:02;;;;;;;5.57;3.88;;;;;;;;;;5032697;28;20216;-66
2022/06/10 00:56:29;;;;;;;5.40;4.18;;;;;;;;;;5032826;28;20536;-67
2022/06/10 00:59:09;;;;;;;5.88;3.85;;;;;;;;;;5033182;28;20158;-67
2022/06/10 01:01:35;;;;;;;4.28;3.50;;;;;;;;;;5032774;28;20224;-67
2022/06/10 01:04:02;;;;;;;5.70;3.80;;;;;;;;;;5032590;28;20676;-67
2022/06/10 01:06:27;;;;;;;5.30;3.42;;;;;;;;;;5032718;28;20173;-67
2022/06/10 01:08:54;;;;;;;4.22;3.28;;;;;;;;;;5032566;28;20170;-67
2022/06/10 01:11:29;;;;;;;6.00;3.22;;;;;;;;;;5032948;28;20184;-67
2022/06/10 01:14:07;;;;;;;3.70;2.90;;;;;;;;;;5032582;28;20201;-66
2022/06/10 01:16:33;;;;;;;3.88;3.00;;;;;;;;;;5032727;28;20164;-66
2022/06/10 01:19:05;;;;;;;4.38;3.22;;;;;;;;;;5035913;28;20500;-66
2022/06/10 01:21:43;;;;;;;6.53;3.40;;;;;;;;;;5036128;28;20172;-66
2022/06/10 01:24:12;;;;;;;7.00;3.38;;;;;;;;;;5036009;28;20208;-66
2022/06/10 01:29:52;;;;;;;5.65;3.10;;;;;;;;;;5035996;28;20169;-67
2022/06/10 01:32:25;;;;;;;4.10;3.13;;;;;;;;;;5035979;28;20584;-67
2022/06/10 01:34:58;;;;;;;6.35;3.53;;;;;;;;;;5035799;28;20201;-67
2022/06/10 01:37:32;;;;;;;3.45;2.72;;;;;;;;;;5035959;28;20546;-66
2022/06/10 01:40:16;;;;;;;4.65;3.08;;;;;;;;;;5035851;28;20641;-66
2022/06/10 01:42:55;;;;;;;5.18;3.15;;;;;;;;;;5035937;28;20146;-67
2022/06/10 01:45:33;;;;;;;6.10;3.20;;;;;;;;;;5036018;28;20244;-66
2022/06/10 01:48:02;;;;;;;4.70;3.17;;;;;;;;;;5035686;28;20165;-66
2022/06/10 01:50:40;;;;;;;4.70;2.88;;;;;;;;;;5035645;28;20174;-66
2022/06/10 01:53:10;;;;;;;4.30;3.50;;;;;;;;;;5035898;28;20474;-67
2022/06/10 01:55:39;;;;;;;5.00;3.63;;;;;;;;;;5035728;28;20164;-67
2022/06/10 01:58:14;;;;;;;5.15;3.47;;;;;;;;;;5035520;28;20211;-67
2022/06/10 02:00:44;;;;;;;4.88;3.45;;;;;;;;;;5035396;28;20169;-67
2022/06/10 02:03:27;;;;;;;4.35;3.60;;;;;;;;;;5035491;28;20549;-67
2022/06/10 02:05:57;;;;;;;6.20;3.38;;;;;;;;;;5035842;28;20160;-67
2022/06/10 02:08:29;;;;;;;9.10;4.25;;;;;;;;;;5035222;28;20154;-67
2022/06/10 02:11:04;;;;;;;5.88;4.00;;;;;;;;;;5035485;28;20164;-67
2022/06/10 02:13:33;;;;;;;8.20;4.35;;;;;;;;;;5035087;28;20200;-67
2022/06/10 02:16:01;;;;;;;6.38;3.88;;;;;;;;;;5035113;28;20173;-67
2022/06/10 02:18:36;;;;;;;8.18;4.80;;;;;;;;;;5035234;28;20174;-67
2022/06/10 02:21:06;;;;;;;6.13;4.70;;;;;;;;;;5035373;28;20196;-67
2022/06/10 02:23:36;;;;;;;8.57;4.72;;;;;;;;;;5035658;28;20195;-67
2022/06/10 02:26:03;;;;;;;7.63;5.00;;;;;;;;;;5035938;28;20170;-67
2022/06/10 02:28:41;;;;;;;7.75;4.60;;;;;;;;;;5035362;28;20188;-67
2022/06/10 02:31:10;;;;;;;6.63;5.18;;;;;;;;;;5035241;28;20161;-67
2022/06/10 02:33:37;;;;;;;7.32;4.95;;;;;;;;;;5035537;28;20243;-67
2022/06/10 02:36:12;;;;;;;9.70;5.25;;;;;;;;;;5037313;28;20166;-67
2022/06/10 02:38:43;;;;;;;6.82;4.95;;;;;;;;;;5036706;28;20238;-67
2022/06/10 02:41:31;;;;;;;9.60;5.28;;;;;;;;;;5036269;28;20173;-67
2022/06/10 02:44:06;;;;;;;7.95;5.07;;;;;;;;;;5036175;28;20252;-67
2022/06/10 02:46:47;;;;;;;7.15;4.95;;;;;;;;;;5035796;28;20207;-66
2022/06/10 02:49:17;;;;;;;6.85;4.68;;;;;;;;;;5035889;28;20161;-66
2022/06/10 02:51:43;;;;;;;6.50;5.13;;;;;;;;;;5035082;28;20180;-66
2022/06/10 02:54:18;;;;;;;6.18;5.03;;;;;;;;;;5034471;28;20193;-67
2022/06/10 02:56:44;;;;;;;9.05;5.45;;;;;;;;;;5035539;28;20620;-67
2022/06/10 03:02:04;;;;;;;6.97;4.88;;;;;;;;;;5035524;28;20168;-67
2022/06/10 03:04:48;;;;;;;7.72;4.75;;;;;;;;;;5036260;28;20163;-67
2022/06/10 03:07:21;;;;;;;7.10;4.97;;;;;;;;;;5034620;28;20158;-67
2022/06/10 03:09:56;;;;;;;6.45;5.32;;;;;;;;;;5034397;28;20180;-66
2022/06/10 03:12:29;;;;;;;7.35;5.05;;;;;;;;;;5034170;28;20173;-66
2022/06/10 03:15:03;;;;;;;7.15;4.93;;;;;;;;;;5034142;28;20663;-66
2022/06/10 03:17:43;;;;;;;6.07;4.88;;;;;;;;;;5034023;28;20146;-66
2022/06/10 03:20:17;;;;;;;5.22;4.68;;;;;;;;;;5033896;28;20160;-67
2022/06/10 03:23:01;;;;;;;6.85;5.38;;;;;;;;;;5034127;28;20239;-67
2022/06/10 03:25:36;;;;;;;6.60;5.20;;;;;;;;;;5034178;28;20173;-67
2022/06/10 03:28:22;;;;;;;6.93;5.28;;;;;;;;;;5034179;28;20167;-66
2022/06/10 03:30:54;;;;;;;6.90;4.95;;;;;;;;;;5033948;28;20629;-67
2022/06/10 03:33:42;;;;;;;7.05;4.95;;;;;;;;;;5034023;28;20528;-67
2022/06/10 03:36:11;;;;;;;6.43;4.65;;;;;;;;;;5033765;28;20223;-67
2022/06/10 03:38:45;;;;;;;5.47;4.90;;;;;;;;;;5033862;28;20166;-67
2022/06/10 03:41:19;;;;;;;6.40;4.78;;;;;;;;;;5033267;28;20207;-67
2022/06/10 03:43:45;;;;;;;5.50;4.55;;;;;;;;;;5033706;28;20601;-66
2022/06/10 03:46:12;;;;;;;5.03;4.38;;;;;;;;;;5033811;28;20165;-67
2022/06/10 03:48:40;;;;;;;7.20;4.32;;;;;;;;;;5033592;28;20173;-66
2022/06/10 03:51:07;;;;;;;4.80;3.50;;;;;;;;;;5033503;28;20251;-66
2022/06/10 03:53:33;;;;;;;5.63;3.60;;;;;;;;;;5033705;28;20185;-67
2022/06/10 03:55:59;;;;;;;3.97;3.20;;;;;;;;;;5033329;28;20177;-67
2022/06/10 03:58:25;;;;;;;5.55;2.80;;;;;;;;;;5033344;28;20166;-67
2022/06/10 04:00:51;;;;;;;2.92;2.63;;;;;;;;;;5033322;28;20802;-67
2022/06/10 04:03:16;;;;;;;2.58;2.35;;;;;;;;;;5033382;28;20169;-67
2022/06/10 04:05:43;;;;;;;4.20;2.55;;;;;;;;;;5033218;28;20706;-67
2022/06/10 04:08:09;;;;;;;3.38;2.78;;;;;;;;;;5033296;28;20170;-67
2022/06/10 04:10:35;;;;;;;2.60;2.40;;;;;;;;;;5033468;28;20543;-67
2022/06/10 04:13:01;;;;;;;3.90;2.15;;;;;;;;;;5033303;28;20181;-67
2022/06/10 04:15:27;;;;;;;3.60;2.25;;;;;;;;;;5033139;28;20211;-66
2022/06/10 04:17:54;;;;;;;2.30;2.10;;;;;;;;;;5033300;28;20162;-66
2022/06/10 04:20:26;;;;;;;3.83;2.58;;;;;;;;;;5033318;28;20515;-66
2022/06/10 04:22:52;;;;;;;3.05;2.15;;;;;;;;;;5033206;28;20189;-67
2022/06/10 04:25:18;;;;;;;3.05;2.30;;;;;;;;;;5033033;28;20170;-67
2022/06/10 04:27:44;;;;;;;2.22;1.95;;;;;;;;;;5033160;28;20193;-67
2022/06/10 04:30:16;;;;;;;2.30;2.10;;;;;;;;;;5033086;28;20452;-66
2022/06/10 04:32:43;;;;;;;2.17;2.00;;;;;;;;;;5033718;28;20158;-66
2022/06/10 04:35:08;;;;;;;2.45;2.10;;;;;;;;;;5033230;28;20209;-66
2022/06/10 04:37:34;;;;;;;2.20;2.00;;;;;;;;;;5032918;28;20189;-66
2022/06/10 04:40:00;;;;;;;2.95;2.13;;;;;;;;;;5033079;28;20168;-66
2022/06/10 04:42:26;;;;;;;4.13;2.33;;;;;;;;;;5032946;28;20601;-67
2022/06/10 04:44:52;;;;;;;3.58;2.60;;;;;;;;;;5033282;28;20178;-67
2022/06/10 04:47:18;;;;;;;2.55;2.03;;;;;;;;;;5032845;28;20628;-67
2022/06/10 04:49:44;;;;;;;3.45;2.60;;;;;;;;;;5033084;28;20257;-67
2022/06/10 04:52:10;;;;;;;3.33;2.63;;;;;;;;;;5035495;28;20244;-66
2022/06/10 04:54:36;;;;;;;5.10;2.55;;;;;;;;;;5039691;28;20212;-67
2022/06/10 04:57:02;;;;;;;3.67;2.30;;;;;;;;;;5036543;28;20173;-67
2022/06/10 04:59:28;;;;;;;5.07;2.67;;;;;;;;;;5036866;28;20180;-67
2022/06/10 05:01:54;;;;;;;4.03;2.40;;;;;;;;;;5036501;28;20157;-67
2022/06/10 05:04:20;;;;;;;4.97;3.67;;;;;;;;;;5036557;28;20264;-67
2022/06/10 05:06:46;;;;;;;4.25;2.55;;;;;;;;;;5036673;28;20173;-67
2022/06/10 05:09:12;;;;;;;3.58;2.67;;;;;;;;;;5036291;28;20169;-67
2022/06/10 05:11:38;;;;;;;4.97;2.90;;;;;;;;;;5036055;28;20260;-66
2022/06/10 05:14:04;;;;;;;4.22;2.70;;;;;;;;;;5036249;28;20511;-66
2022/06/10 05:16:30;;;;;;;3.92;2.40;;;;;;;;;;5036142;28;20531;-67
2022/06/10 05:18:57;;;;;;;6.30;2.42;;;;;;;;;;5036149;28;20161;-67
2022/06/10 05:21:23;;;;;;;5.43;2.22;;;;;;;;;;5035963;28;20200;-66
2022/06/10 05:23:49;;;;;;;3.20;2.10;;;;;;;;;;5036182;28;20165;-66
2022/06/10 05:26:16;;;;;;;3.40;2.28;;;;;;;;;;5036193;28;20170;-66
2022/06/10 05:28:42;;;;;;;4.40;2.42;;;;;;;;;;5036030;28;20170;-66
2022/06/10 05:31:08;;;;;;;3.40;2.10;;;;;;;;;;5035785;28;20184;-66
2022/06/10 05:36:19;;;;;;;3.50;1.92;;;;;;;;;;5035867;28;20161;-66
2022/06/10 05:38:46;;;;;;;2.78;1.88;;;;;;;;;;5035814;28;20208;-67
2022/06/10 05:43:57;;;;;;;3.78;2.10;;;;;;;;;;5035709;28;20180;-66
2022/06/10 05:46:23;;;;;;;3.15;1.75;;;;;;;;;;5035787;28;20169;-66
2022/06/10 05:48:49;;;;;;;7.32;2.72;;;;;;;;;;5035858;28;20308;-67
2022/06/10 05:51:14;;;;;;;4.05;2.10;;;;;;;;;;5035792;28;20723;-67
2022/06/10 05:53:40;;;;;;;2.30;1.85;;;;;;;;;;5035533;28;20220;-66
2022/06/10 05:56:06;;;;;;;6.10;2.85;;;;;;;;;;5035469;28;20172;-67
2022/06/10 05:58:32;;;;;;;3.50;2.08;;;;;;;;;;5035333;28;20605;-67
2022/06/10 06:00:58;;;;;;;5.95;2.10;;;;;;;;;;5035743;28;20171;-67
2022/06/10 06:03:24;;;;;;;3.45;1.98;;;;;;;;;;5034887;28;20543;-67
2022/06/10 06:05:50;;;;;;;3.35;1.95;;;;;;;;;;5035974;28;20639;-67
2022/06/10 06:08:16;;;;;;;8.52;2.17;;;;;;;;;;5035642;28;20165;-67
2022/06/10 06:10:43;;;;;;;3.97;2.00;;;;;;;;;;5035429;28;20162;-66
2022/06/10 06:13:10;;;;;;;3.00;2.13;;;;;;;;;;5035351;28;20260;-67
2022/06/10 06:15:36;;;;;;;4.30;1.92;;;;;;;;;;5034438;28;20227;-67
2022/06/10 06:18:02;;;;;;;3.17;2.03;;;;;;;;;;5035128;28;20173;-66
2022/06/10 06:20:28;;;;;;;2.88;2.10;;;;;;;;;;5035373;28;20589;-67
2022/06/10 06:22:54;;;;;;;5.70;2.08;;;;;;;;;;5034974;28;20222;-67
2022/06/10 06:25:20;;;;;;;3.90;2.35;;;;;;;;;;5034899;28;20178;-67
2022/06/10 06:27:48;;;;;;;4.50;2.92;;;;;;;;;;5035180;28;20177;-67
2022/06/10 06:30:30;;;;;;;3.40;2.33;;;;;;;;;;5034974;28;20597;-67
2022/06/10 06:32:56;;;;;;;3.80;1.88;;;;;;;;;;5034754;28;20203;-67
2022/06/10 06:35:22;;;;;;;6.15;2.33;;;;;;;;;;5034750;28;20199;-67
2022/06/10 06:37:48;;;;;;;4.40;2.13;;;;;;;;;;5034695;28;20161;-67
2022/06/10 06:40:14;;;;;;;4.55;2.88;;;;;;;;;;5034832;28;20618;-67
2022/06/10 06:42:40;;;;;;;3.53;2.50;;;;;;;;;;5034537;28;20644;-67
2022/06/10 06:45:06;;;;;;;4.03;2.63;;;;;;;;;;5034488;28;20165;-67
2022/06/10 06:47:32;;;;;;;5.32;2.55;;;;;;;;;;5034278;28;20172;-67
2022/06/10 06:49:58;;;;;;;4.07;2.10;;;;;;;;;;5034305;28;20172;-67
2022/06/10 06:52:24;;;;;;;3.83;2.83;;;;;;;;;;5034270;28;20173;-67
2022/06/10 06:54:50;;;;;;;3.85;2.40;;;;;;;;;;5034191;28;20193;-67
2022/06/10 06:57:18;;;;;;;6.07;2.80;;;;;;;;;;5034632;28;20169;-67
2022/06/10 06:59:44;;;;;;;5.57;3.28;;;;;;;;;;5034611;28;20245;-67
2022/06/10 07:02:10;;;;;;;4.00;2.67;;;;;;;;;;5034161;28;20655;-67
2022/06/10 07:04:36;;;;;;;4.28;2.60;;;;;;;;;;5034469;28;20507;-67
2022/06/10 07:07:02;;;;;;;7.30;2.40;;;;;;;;;;5034339;28;20184;-67
2022/06/10 07:09:29;;;;;;;4.05;2.45;;;;;;;;;;5034223;28;20192;-67
2022/06/10 07:11:55;;;;;;;6.55;2.42;;;;;;;;;;5034213;28;20247;-67
2022/06/10 07:14:22;;;;;;;5.65;2.40;;;;;;;;;;5033538;28;20174;-67
2022/06/10 07:16:51;;;;;;;5.43;2.33;;;;;;;;;;5033985;28;20215;-67
2022/06/10 07:19:17;;;;;;;6.88;2.40;;;;;;;;;;5034275;28;20185;-67
2022/06/10 07:21:43;;;;;;;4.95;2.08;;;;;;;;;;5034057;28;20250;-67
2022/06/10 07:24:09;;;;;;;4.95;2.47;;;;;;;;;;5034142;28;20177;-67
2022/06/10 07:26:35;;;;;;;5.38;2.55;;;;;;;;;;5033989;28;20176;-67
2022/06/10 07:29:01;;;;;;;4.80;2.40;;;;;;;;;;5033783;28;20654;-67
2022/06/10 07:31:27;;;;;;;3.17;2.03;;;;;;;;;;5034010;28;20196;-67
2022/06/10 07:33:53;;;;;;;4.38;1.80;;;;;;;;;;5033601;28;20239;-67
2022/06/10 07:36:19;;;;;;;3.85;1.77;;;;;;;;;;5034121;28;20161;-67
2022/06/10 07:38:45;;;;;;;4.68;1.88;;;;;;;;;;5033955;28;20176;-67
2022/06/10 07:43:56;;;;;;;6.35;2.30;;;;;;;;;;5034092;28;20219;-67
2022/06/10 07:46:23;;;;;;;5.97;1.90;;;;;;;;;;5033870;28;20605;-67
2022/06/10 07:48:49;;;;;;;5.07;1.70;;;;;;;;;;5033798;28;20168;-67
2022/06/10 07:51:16;;;;;;;2.72;1.63;;;;;;;;;;5033571;28;20231;-67
2022/06/10 07:53:43;;;;;;;3.08;1.60;;;;;;;;;;5166054;22;20330;-66
2022/06/10 07:57:17;;;;;;;8.45;2.60;;;;;;;;;;5571471;22;20535;-66
2022/06/10 08:04:35;;;;;;;3.55;1.60;;;;;;;;;;5579874;22;20207;-67
2022/06/10 08:07:30;;;;;;;6.07;2.00;;;;;;;;;;5355553;22;20651;-68
2022/06/10 08:09:56;;;;;;;5.72;2.58;;;;;;;;;;5076534;22;20215;-67
2022/06/10 08:12:21;;;;;;;5.53;1.90;;;;;;;;;;5071387;28;20154;-67
2022/06/10 08:14:48;;;;;;;4.50;1.52;;;;;;;;;;5073355;28;20592;-67
2022/06/10 08:17:14;;;;;;;5.65;1.75;;;;;;;;;;5070791;28;20364;-67
2022/06/10 08:19:40;;;;;;;5.68;1.80;;;;;;;;;;5070689;28;20160;-67
2022/06/10 08:24:51;;;;;;;4.55;1.55;;;;;;;;;;5070900;28;20225;-67
2022/06/10 08:27:17;;;;;;;5.78;1.90;;;;;;;;;;5070588;28;20193;-68
2022/06/10 08:29:44;;;;;;;5.95;1.70;;;;;;;;;;5070371;28;20262;-68
2022/06/10 08:32:10;;;;;;;5.05;1.73;;;;;;;;;;5070466;28;20174;-67
2022/06/10 08:34:36;;;;;;;5.57;1.73;;;;;;;;;;5070351;28;20196;-67
2022/06/10 08:37:02;;;;;;;4.25;1.60;;;;;;;;;;5070231;28;20160;-67
2022/06/10 08:39:29;;;;;;;4.18;1.73;;;;;;;;;;5070065;28;20179;-67
2022/06/10 08:42:08;;;;;;;5.78;2.25;;;;;;;;;;5070199;28;20212;-67
2022/06/10 08:44:34;;;;;;;5.72;1.65;;;;;;;;;;5070102;28;20170;-67
2022/06/10 08:47:05;;;;;;;8.38;2.15;;;;;;;;;;5070205;28;20352;-67
2022/06/10 08:49:47;;;;;;;5.40;1.50;;;;;;;;;;5069996;28;20235;-67
2022/06/10 08:52:17;;;;;;;4.57;1.70;;;;;;;;;;5070240;28;20179;-67
2022/06/10 08:54:52;;;;;;;5.28;1.75;;;;;;;;;;5070057;28;20323;-67
2022/06/10 08:57:38;;;;;;;5.88;1.75;;;;;;;;;;5068933;28;20206;-67
2022/06/10 09:00:06;;;;;;;4.50;1.95;;;;;;;;;;5070023;28;20168;-67
2022/06/10 09:02:34;;;;;;;5.35;1.90;;;;;;;;;;5069758;28;20199;-67
2022/06/10 09:05:05;;;;;;;3.70;1.60;;;;;;;;;;5069729;28;20176;-67
2022/06/10 09:07:36;;;;;;;4.07;1.77;;;;;;;;;;5069926;28;20160;-67
2022/06/10 09:10:04;;;;;;;4.70;1.52;;;;;;;;;;5069515;28;20661;-67
2022/06/10 09:12:44;;;;;;;6.32;1.48;;;;;;;;;;5069612;28;20210;-67
2022/06/10 09:15:12;;;;;;;2.92;1.38;;;;;;;;;;5070033;28;20561;-67
2022/06/10 09:17:41;;;;;;;4.88;1.35;;;;;;;;;;5063066;28;20200;-67
2022/06/10 09:20:14;;;;;;;4.78;1.45;;;;;;;;;;5056675;28;20165;-67
2022/06/10 09:22:39;;;;;;;6.53;1.70;;;;;;;;;;5062859;23;20247;-67
2022/06/10 09:25:11;;;;;;;5.07;1.40;;;;;;;;;;5091186;22;20256;-67
2022/06/10 09:27:39;;;;;;;5.50;1.70;;;;;;;;;;5058391;28;20176;-67
2022/06/10 09:30:07;;;;;;;3.78;1.80;;;;;;;;;;5058452;28;20187;-67
2022/06/10 09:32:47;;;;;;;4.75;1.83;;;;;;;;;;5058776;28;20210;-66
2022/06/10 09:35:32;;;;;;;4.82;1.63;;;;;;;;;;5059898;28;20153;-69
2022/06/10 09:38:12;;;;;;;4.07;2.45;;;;;;;;;;5058654;28;20169;-67
2022/06/10 09:40:41;;;;;;;6.15;1.85;;;;;;;;;;5065402;28;20155;-68
2022/06/10 09:43:15;;;;;;;5.95;1.77;;;;;;;;;;5070835;28;20181;-68
2022/06/10 09:46:00;;;;;;;3.50;1.60;;;;;;;;;;5068283;28;20214;-69
2022/06/10 09:48:52;;;;;;;4.28;1.80;;;;;;;;;;5069020;28;20603;-67
2022/06/10 09:51:36;;;;;;;4.88;1.45;;;;;;;;;;5047365;28;20624;-66
2022/06/10 09:54:02;;;;;;;2.85;1.38;;;;;;;;;;5055819;28;20156;-67
2022/06/10 09:56:28;;;;;;;2.97;1.30;;;;;;;;;;5055864;28;20267;-67
2022/06/10 09:59:00;;;;;;;7.63;1.80;;;;;;;;;;5055545;28;20165;-68
2022/06/10 10:01:32;;;;;;;5.75;1.80;;;;;;;;;;5055325;28;20173;-68
2022/06/10 10:04:18;;;;;;;3.60;1.95;;;;;;;;;;5055311;28;20571;-69
2022/06/10 10:07:03;;;;;;;5.75;1.17;;;;;;;;;;5055367;28;20272;-69
2022/06/10 10:09:47;;;;;;;4.38;1.40;;;;;;;;;;5055145;28;20260;-68
2022/06/10 10:12:24;;;;;;;3.88;1.20;;;;;;;;;;5055271;28;20209;-68
2022/06/10 10:15:09;;;;;;;4.70;1.75;;;;;;;;;;5055013;28;20249;-68
2022/06/10 10:17:54;;;;;;;3.80;1.50;;;;;;;;;;5055446;28;20176;-68
2022/06/10 10:20:31;;;;;;;2.97;1.48;;;;;;;;;;5055336;28;20511;-68
2022/06/10 10:23:06;;;;;;;2.90;1.30;;;;;;;;;;5055176;28;20207;-68
2022/06/10 10:25:32;;;;;;;6.25;1.70;;;;;;;;;;5054591;28;20282;-68
2022/06/10 10:27:58;;;;;;;4.60;1.85;;;;;;;;;;5054751;28;20184;-68
2022/06/10 10:30:31;;;;;;;3.67;1.50;;;;;;;;;;5053658;28;20153;-68
2022/06/10 10:33:00;;;;;;;5.03;1.60;;;;;;;;;;5054779;28;20651;-68
2022/06/10 10:35:29;;;;;;;4.28;1.30;;;;;;;;;;5054664;28;20559;-68
2022/06/10 10:38:00;;;;;;;5.00;1.52;;;;;;;;;;5054756;28;20172;-68
2022/06/10 10:40:39;;;;;;;6.90;1.42;;;;;;;;;;5054506;28;20616;-68
2022/06/10 10:43:10;;;;;;;4.22;1.50;;;;;;;;;;5054805;28;20263;-68
2022/06/10 10:45:37;;;;;;;4.50;1.40;;;;;;;;;;5054487;28;20188;-68
2022/06/10 10:48:25;;;;;;;3.95;1.20;;;;;;;;;;5054621;28;20263;-68
2022/06/10 10:51:00;;;;;;;2.35;1.10;;;;;;;;;;5054553;28;20160;-68
2022/06/10 10:53:32;;;;;;;3.33;1.48;;;;;;;;;;5054595;28;20175;-68
2022/06/10 10:55:59;;;;;;;2.58;1.20;;;;;;;;;;5054704;28;20171;-68
2022/06/10 10:58:28;;;;;;;2.33;1.05;;;;;;;;;;5054229;28;20172;-68
2022/06/10 11:01:43;;;;;;;4.65;1.20;;;;;;;;;;5054575;28;20172;-68
2022/06/10 11:04:01;;;;;;;3.67;0.95;;;;;;;;;;5054548;28;20233;-68
2022/06/10 11:06:36;;;;;;;3.70;1.20;;;;;;;;;;5054127;28;20242;-68
2022/06/10 11:09:22;;;;;;;2.95;1.10;;;;;;;;;;5053951;28;20171;-68
2022/06/10 11:11:49;;;;;;;7.90;1.58;;;;;;;;;;5053990;28;20306;-69
2022/06/10 11:14:21;;;;;;;2.85;1.17;;;;;;;;;;5053903;28;20179;-69
2022/06/10 11:17:06;;;;;;;1.88;0.90;;;;;;;;;;5053003;28;20466;-69
2022/06/10 11:19:32;;;;;;;4.65;1.38;;;;;;;;;;5054004;28;20169;-68
2022/06/10 11:22:04;;;;;;;2.08;1.10;;;;;;;;;;5053720;28;20237;-68
2022/06/10 11:24:32;;;;;;;2.70;1.20;;;;;;;;;;5053729;28;20180;-68
2022/06/10 11:26:59;;;;;;;5.30;1.15;;;;;;;;;;5053910;28;20180;-68
2022/06/10 11:29:26;;;;;;;2.88;1.00;;;;;;;;;;5053831;28;20584;-69
2022/06/10 11:31:55;;;;;;;3.15;1.35;;;;;;;;;;5053673;28;20164;-69
2022/06/10 11:34:43;;;;;;;6.85;1.20;;;;;;;;;;5053539;28;20537;-69
2022/06/10 11:37:21;;;;;;;3.92;1.65;;;;;;;;;;5053683;28;20149;-69
2022/06/10 11:39:52;;;;;;;3.67;1.30;;;;;;;;;;5053560;28;20640;-69
2022/06/10 11:42:26;;;;;;;2.58;1.17;;;;;;;;;;5053314;28;20171;-69
2022/06/10 11:45:07;;;;;;;2.63;1.35;;;;;;;;;;5053288;28;20502;-69
2022/06/10 11:47:38;;;;;;;4.18;1.48;;;;;;;;;;5053212;28;20194;-69
2022/06/10 11:50:06;;;;;;;4.88;1.23;;;;;;;;;;5053689;28;20164;-69
2022/06/10 11:52:35;;;;;;;2.17;1.33;;;;;;;;;;5053300;28;20493;-69
2022/06/10 11:55:05;;;;;;;4.80;1.33;;;;;;;;;;5053285;28;20160;-68
2022/06/10 12:00:41;;;;;;;3.40;0.98;;;;;;;;;;5053307;28;20172;-68
2022/06/10 12:03:26;;;;;;;2.25;1.17;;;;;;;;;;5053336;28;20187;-68
2022/06/10 12:05:55;;;;;;;4.15;1.40;;;;;;;;;;5053363;28;20223;-68
2022/06/10 12:08:28;;;;;;;4.10;1.17;;;;;;;;;;5053351;28;20160;-68
2022/06/10 12:11:20;;;;;;;2.85;1.63;;;;;;;;;;5053395;28;20157;-68
2022/06/10 12:13:59;;;;;;;2.92;1.08;;;;;;;;;;5052115;28;20183;-68
2022/06/10 12:16:26;;;;;;;4.20;1.40;;;;;;;;;;5053128;28;20168;-68
2022/06/10 12:18:53;;;;;;;4.95;1.20;;;;;;;;;;5052152;28;20263;-68
2022/06/10 12:21:21;;;;;;;3.00;1.13;;;;;;;;;;5053096;28;20644;-69
2022/06/10 12:23:47;;;;;;;3.53;1.20;;;;;;;;;;5053156;28;20215;-69
2022/06/10 12:26:32;;;;;;;4.28;1.23;;;;;;;;;;5052888;28;20529;-69
2022/06/10 12:29:04;;;;;;;3.13;1.17;;;;;;;;;;5053300;28;20543;-69
2022/06/10 12:31:49;;;;;;;2.88;1.13;;;;;;;;;;5053207;28;20168;-69
2022/06/10 12:34:18;;;;;;;2.70;1.33;;;;;;;;;;5053084;28;20156;-69
2022/06/10 12:36:46;;;;;;;3.67;1.02;;;;;;;;;;5052862;28;20176;-69
2022/06/10 12:39:19;;;;;;;3.08;1.30;;;;;;;;;;5052867;28;20178;-69
2022/06/10 12:41:48;;;;;;;2.75;1.30;;;;;;;;;;5053256;28;20153;-69
2022/06/10 12:44:18;;;;;;;1.60;0.80;;;;;;;;;;5052919;28;20234;-68
2022/06/10 12:46:49;;;;;;;2.25;1.10;;;;;;;;;;5053202;28;20507;-68
2022/06/10 12:49:27;;;;;;;1.98;0.90;;;;;;;;;;5052647;28;20319;-68
2022/06/10 12:52:00;;;;;;;1.83;0.98;;;;;;;;;;5052845;28;20172;-68
2022/06/10 12:54:31;;;;;;;3.85;1.30;;;;;;;;;;5056818;28;20650;-69
2022/06/10 12:57:16;;;;;;;4.57;1.40;;;;;;;;;;5056687;28;20170;-69
2022/06/10 12:59:42;;;;;;;3.50;1.20;;;;;;;;;;5056581;28;20233;-68
2022/06/10 13:02:28;;;;;;;4.03;0.98;;;;;;;;;;5056448;28;20187;-68
2022/06/10 13:04:56;;;;;;;2.88;1.15;;;;;;;;;;5056326;28;20200;-69
2022/06/10 13:07:27;;;;;;;3.50;1.15;;;;;;;;;;5056301;28;20682;-69
2022/06/10 13:09:53;;;;;;;1.75;0.98;;;;;;;;;;5056362;28;20289;-69
2022/06/10 13:12:35;;;;;;;3.40;1.50;;;;;;;;;;5056555;28;20214;-69
2022/06/10 13:15:24;;;;;;;4.38;1.30;;;;;;;;;;5056216;28;20195;-69
2022/06/10 13:17:55;;;;;;;5.20;1.10;;;;;;;;;;5056237;28;20180;-69
2022/06/10 13:20:22;;;;;;;3.95;1.50;;;;;;;;;;5056218;28;20167;-69
2022/06/10 13:23:27;;;;;;;4.75;1.20;;;;;;;;;;5056100;28;20169;-69
2022/06/10 13:26:12;;;;;;;1.83;1.15;;;;;;;;;;5034144;28;20227;-70
2022/06/10 13:28:41;;;;;;;3.80;1.17;;;;;;;;;;5034100;28;20161;-70
2022/06/10 13:31:20;;;;;;;2.63;1.20;;;;;;;;;;5034226;28;20173;-70
2022/06/10 13:34:00;;;;;;;6.15;1.40;;;;;;;;;;5017419;28;20165;-70
2022/06/10 13:36:27;;;;;;;2.58;1.20;;;;;;;;;;5033797;28;20211;-70
2022/06/10 13:38:54;;;;;;;5.68;1.20;;;;;;;;;;5033986;28;20467;-70
2022/06/10 13:41:49;;;;;;;1.70;1.02;;;;;;;;;;5033870;28;20256;-70
2022/06/10 13:44:24;;;;;;;2.83;1.15;;;;;;;;;;5033843;28;20192;-70
2022/06/10 13:46:51;;;;;;;3.55;1.33;;;;;;;;;;5033499;28;20196;-70
2022/06/10 13:49:51;;;;;;;2.58;1.05;;;;;;;;;;5033616;28;20669;-70
2022/06/10 13:52:19;;;;;;;3.38;1.30;;;;;;;;;;5033661;28;20215;-70
2022/06/10 13:54:45;;;;;;;3.30;1.48;;;;;;;;;;5017204;28;20183;-70
2022/06/10 13:57:19;;;;;;;4.00;1.40;;;;;;;;;;5049672;28;20180;-69
2022/06/10 13:59:45;;;;;;;3.05;1.20;;;;;;;;;;5055763;28;20176;-69
2022/06/10 14:02:18;;;;;;;1.65;1.08;;;;;;;;;;5055338;28;20171;-69
2022/06/10 14:04:45;;;;;;;3.72;1.40;;;;;;;;;;5055260;28;20187;-69
2022/06/10 14:07:14;;;;;;;3.25;1.10;;;;;;;;;;5055230;28;20248;-70
2022/06/10 14:09:40;;;;;;;2.72;1.30;;;;;;;;;;5054123;28;20169;-69
2022/06/10 14:12:22;;;;;;;3.22;1.10;;;;;;;;;;5055376;28;20196;-70
2022/06/10 14:14:48;;;;;;;2.03;1.30;;;;;;;;;;5055154;28;20482;-70
2022/06/10 14:17:24;;;;;;;2.83;1.13;;;;;;;;;;5054042;28;20164;-70
2022/06/10 14:19:50;;;;;;;1.95;1.25;;;;;;;;;;5055097;28;20560;-69
2022/06/10 14:22:21;;;;;;;2.58;1.27;;;;;;;;;;5054871;28;20259;-70
2022/06/10 14:25:06;;;;;;;2.95;1.10;;;;;;;;;;5054847;28;20184;-70
2022/06/10 14:27:34;;;;;;;3.50;1.30;;;;;;;;;;5054640;28;20195;-70
2022/06/10 14:30:02;;;;;;;2.63;1.00;;;;;;;;;;5055011;28;20229;-69
2022/06/10 14:32:30;;;;;;;3.63;1.30;;;;;;;;;;5054816;28;20157;-70
2022/06/10 14:34:58;;;;;;;1.73;1.00;;;;;;;;;;5054483;28;20184;-69
2022/06/10 14:37:34;;;;;;;2.80;1.15;;;;;;;;;;5054513;28;20164;-69
2022/06/10 14:40:03;;;;;;;1.42;1.10;;;;;;;;;;5054583;28;20156;-69
2022/06/10 14:42:32;;;;;;;1.15;1.02;;;;;;;;;;5054488;28;20203;-69
2022/06/10 14:44:59;;;;;;;2.60;1.27;;;;;;;;;;5054703;28;20179;-69
2022/06/10 14:47:25;;;;;;;2.97;1.20;;;;;;;;;;5060184;22;20263;-69
2022/06/10 14:49:58;;;;;;;2.42;1.23;;;;;;;;;;5054558;28;20172;-69
2022/06/10 14:52:39;;;;;;;3.38;1.23;;;;;;;;;;5054381;28;20231;-70
2022/06/10 14:55:07;;;;;;;2.10;1.13;;;;;;;;;;5054637;28;20164;-70
2022/06/10 14:57:33;;;;;;;1.58;1.20;;;;;;;;;;5054377;28;20620;-69
2022/06/10 14:59:59;;;;;;;2.75;1.10;;;;;;;;;;5054438;28;20251;-69
2022/06/10 15:02:25;;;;;;;3.58;1.23;;;;;;;;;;5054399;28;20200;-69
2022/06/10 15:07:37;;;;;;;2.53;1.38;;;;;;;;;;5054844;28;20191;-69
2022/06/10 15:10:05;;;;;;;4.32;1.42;;;;;;;;;;5055756;28;20160;-69
2022/06/10 15:12:33;;;;;;;2.33;1.15;;;;;;;;;;5055105;28;20580;-69
2022/06/10 15:14:59;;;;;;;3.50;1.33;;;;;;;;;;5055093;28;20169;-69
2022/06/10 15:17:29;;;;;;;1.65;1.23;;;;;;;;;;5055274;28;20306;-70
2022/06/10 15:19:56;;;;;;;2.53;1.08;;;;;;;;;;5054424;28;20549;-70
2022/06/10 15:22:21;;;;;;;3.20;1.40;;;;;;;;;;5055061;28;20237;-69
2022/06/10 15:24:48;;;;;;;4.57;1.48;;;;;;;;;;5054309;28;20255;-69
2022/06/10 15:27:14;;;;;;;2.97;1.20;;;;;;;;;;5054348;28;20212;-69
2022/06/10 15:29:40;;;;;;;2.35;1.23;;;;;;;;;;5053407;28;20168;-69
2022/06/10 15:32:11;;;;;;;2.92;1.20;;;;;;;;;;5055127;28;20235;-69
2022/06/10 15:40:42;;;;;;;2.95;1.77;;;;;;;;;;5055271;28;20148;-69